createdAt,value
2018-02-23T00:01:48.047Z,10.70
2018-02-23T00:04:15.551Z,11.80
2018-02-23T00:06:43.040Z,11.43
2018-02-23T00:09:10.540Z,10.73
2018-02-23T00:11:38.836Z,9.83
2018-02-23T00:14:06.327Z,12.07
2018-02-23T00:16:33.868Z,12.63
2018-02-23T00:19:02.122Z,11.27
2018-02-23T00:21:30.383Z,12.50
2018-02-23T00:23:57.930Z,12.33
2018-02-23T00:26:25.430Z,11.90
2018-02-23T00:28:53.691Z,13.13
2018-02-23T00:31:21.959Z,12.10
2018-02-23T00:33:49.450Z,11.97
2018-02-23T00:36:17.708Z,10.23
2018-02-23T00:38:45.979Z,11.93
2018-02-23T00:41:13.466Z,13.23
2018-02-23T00:43:40.971Z,12.57
2018-02-23T00:46:08.467Z,13.67
2018-02-23T00:48:36.730Z,13.57
2018-02-23T00:51:04.236Z,12.83
2018-02-23T00:53:31.729Z,12.40
2018-02-23T00:55:59.663Z,13.27
2018-02-23T00:58:27.167Z,12.00
2018-02-23T01:00:54.668Z,13.03
2018-02-23T01:03:22.163Z,12.53
2018-02-23T01:05:49.673Z,14.67
2018-02-23T01:08:17.919Z,13.87
2018-02-23T01:10:45.418Z,12.43
2018-02-23T01:13:12.913Z,13.37
2018-02-23T01:15:41.166Z,12.67
2018-02-23T01:18:08.657Z,14.63
2018-02-23T01:20:36.151Z,12.50
2018-02-23T01:23:04.414Z,15.00
2018-02-23T01:25:32.692Z,14.67
2018-02-23T01:28:00.950Z,12.80
2018-02-23T01:30:28.447Z,14.83
2018-02-23T01:32:55.941Z,15.17
2018-02-23T01:35:23.428Z,14.33
2018-02-23T01:37:50.915Z,14.57
2018-02-23T01:40:18.435Z,16.87
2018-02-23T01:42:45.927Z,15.30
2018-02-23T01:45:13.425Z,16.27
2018-02-23T01:47:40.919Z,15.50
2018-02-23T01:50:08.423Z,17.57
2018-02-23T01:52:35.921Z,15.37
2018-02-23T01:55:03.424Z,13.97
2018-02-23T01:57:30.936Z,14.93
2018-02-23T01:59:58.432Z,16.50
2018-02-23T02:02:26.677Z,16.07
2018-02-23T02:04:54.180Z,15.93
2018-02-23T02:07:21.679Z,16.83
2018-02-23T02:09:49.177Z,16.77
2018-02-23T02:12:17.443Z,14.63
2018-02-23T02:14:45.696Z,16.70
2018-02-23T02:17:13.199Z,14.87
2018-02-23T02:19:40.677Z,18.57
2018-02-23T02:22:08.166Z,14.10
2018-02-23T02:24:35.662Z,15.53
2018-02-23T02:27:03.935Z,17.40
2018-02-23T02:29:32.221Z,15.73
2018-02-23T02:31:59.724Z,16.03
2018-02-23T02:34:27.220Z,15.43
2018-02-23T02:36:55.503Z,17.40
2018-02-23T02:39:23.755Z,15.40
2018-02-23T02:41:51.246Z,14.67
2018-02-23T02:44:18.752Z,17.13
2018-02-23T02:46:46.253Z,15.23
2018-02-23T02:49:14.533Z,15.97
2018-02-23T02:51:42.037Z,18.17
2018-02-23T02:54:09.528Z,17.33
2018-02-23T02:56:37.012Z,17.93
2018-02-23T02:59:04.500Z,17.40
2018-02-23T03:01:32.004Z,16.93
2018-02-23T03:04:00.273Z,17.90
2018-02-23T03:06:27.771Z,16.40
2018-02-23T03:08:55.260Z,18.03
2018-02-23T03:11:22.767Z,17.67
2018-02-23T03:13:51.019Z,16.50
2018-02-23T03:16:18.544Z,17.83
2018-02-23T03:18:46.037Z,17.00
2018-02-23T03:21:13.536Z,18.90
2018-02-23T03:23:41.024Z,15.47
2018-02-23T03:26:08.511Z,19.47
2018-02-23T03:28:36.019Z,19.47
2018-02-23T03:31:03.508Z,18.40
2018-02-23T03:33:30.999Z,17.33
2018-02-23T03:35:59.272Z,17.77
2018-02-23T03:38:27.527Z,21.23
2018-02-23T03:40:55.036Z,19.07
2018-02-23T03:43:22.528Z,18.50
2018-02-23T03:45:50.019Z,18.07
2018-02-23T03:48:18.306Z,21.03
2018-02-23T03:50:46.561Z,18.07
2018-02-23T03:53:14.057Z,20.30
2018-02-23T03:55:41.582Z,18.93
2018-02-23T03:58:09.072Z,21.20
2018-02-23T04:00:36.564Z,19.50
2018-02-23T04:03:04.059Z,20.93
2018-02-23T04:05:31.547Z,18.77
2018-02-23T04:07:59.061Z,19.07
2018-02-23T04:10:26.555Z,19.37
2018-02-23T04:12:54.815Z,19.20
2018-02-23T04:15:22.323Z,18.60
2018-02-23T04:17:49.817Z,18.23
2018-02-23T04:20:17.314Z,19.20
2018-02-23T04:22:44.798Z,20.73
2018-02-23T04:25:12.291Z,20.37
2018-02-23T04:27:39.798Z,19.13
2018-02-23T04:30:07.290Z,21.17
2018-02-23T04:32:34.795Z,20.90
2018-02-23T04:35:03.084Z,20.00
2018-02-23T04:37:30.575Z,20.10
2018-02-23T04:39:58.068Z,19.00
2018-02-23T04:42:25.579Z,22.57
2018-02-23T04:44:53.072Z,22.50
2018-02-23T04:47:20.567Z,22.53
2018-02-23T04:49:48.831Z,21.37
2018-02-23T04:52:17.087Z,21.40
2018-02-23T04:54:44.577Z,20.57
2018-02-23T04:57:12.844Z,19.33
2018-02-23T04:59:41.094Z,22.53
2018-02-23T05:02:08.608Z,21.47
2018-02-23T05:04:36.100Z,21.37
2018-02-23T05:07:03.578Z,16.53
2018-02-23T05:09:31.075Z,22.47
2018-02-23T05:11:58.575Z,21.07
2018-02-23T05:14:26.067Z,20.70
2018-02-23T05:16:54.336Z,21.57
2018-02-23T05:19:22.583Z,21.63
2018-02-23T05:21:50.073Z,20.47
2018-02-23T05:24:18.344Z,22.27
2018-02-23T05:26:46.603Z,20.57
2018-02-23T05:29:14.096Z,22.37
2018-02-23T05:31:41.603Z,28.30
2018-02-23T05:34:09.095Z,22.90
2018-02-23T05:36:37.352Z,23.63
2018-02-23T05:39:04.859Z,24.63
2018-02-23T05:41:32.356Z,22.50
2018-02-23T05:43:59.857Z,28.23
2018-02-23T05:46:27.343Z,24.87
2018-02-23T05:48:54.851Z,25.43
2018-02-23T05:51:23.117Z,26.30
2018-02-23T05:53:50.612Z,24.27
2018-02-23T05:56:18.126Z,24.67
2018-02-23T05:58:45.628Z,19.77
2018-02-23T06:01:13.127Z,25.30
2018-02-23T06:03:40.623Z,23.93
2018-02-23T06:06:08.879Z,24.47
2018-02-23T06:08:36.384Z,29.77
2018-02-23T06:11:03.904Z,26.10
2018-02-23T06:13:31.392Z,30.10
2018-02-23T06:16:04.681Z,21.43
2018-02-23T06:18:37.819Z,23.73
2018-02-23T06:21:06.097Z,24.63
2018-02-23T06:23:33.595Z,20.47
2018-02-23T06:26:02.819Z,24.97
2018-02-23T06:28:30.324Z,24.40
2018-02-23T06:30:57.826Z,25.93
2018-02-23T06:33:25.336Z,24.83
2018-02-23T06:35:52.859Z,25.20
2018-02-23T06:38:20.375Z,24.83
2018-02-23T06:40:48.698Z,26.07
2018-02-23T06:43:16.209Z,27.97
2018-02-23T06:45:44.599Z,26.53
2018-02-23T06:48:12.133Z,26.53
2018-02-23T06:50:41.979Z,25.03
2018-02-23T06:53:09.488Z,24.23
2018-02-23T06:55:37.000Z,22.77
2018-02-23T06:58:04.530Z,22.90
2018-02-23T07:00:32.799Z,24.50
2018-02-23T07:03:01.150Z,23.47
2018-02-23T07:05:28.644Z,22.70
2018-02-23T07:07:56.929Z,19.83
2018-02-23T07:10:24.426Z,23.73
2018-02-23T07:12:51.937Z,21.50
2018-02-23T07:15:20.239Z,24.03
2018-02-23T07:17:47.750Z,22.00
2018-02-23T07:20:15.263Z,23.23
2018-02-23T07:22:42.809Z,20.97
2018-02-23T07:25:10.346Z,20.57
2018-02-23T07:27:38.629Z,21.60
2018-02-23T07:30:06.144Z,24.40
2018-02-23T07:32:33.654Z,20.87
2018-02-23T07:35:01.164Z,23.90
2018-02-23T07:37:28.662Z,15.03
2018-02-23T07:39:56.184Z,20.00
2018-02-23T07:42:23.703Z,21.37
2018-02-23T07:44:51.257Z,22.17
2018-02-23T07:47:18.789Z,22.60
2018-02-23T07:49:47.066Z,20.70
2018-02-23T07:52:15.366Z,20.60
2018-02-23T07:54:42.881Z,43.63
2018-02-23T07:57:10.387Z,19.80
2018-02-23T07:59:37.920Z,21.90
2018-02-23T08:02:05.411Z,19.50
2018-02-23T08:04:32.936Z,14.57
2018-02-23T08:07:01.212Z,16.17
2018-02-23T08:09:28.754Z,21.37
2018-02-23T08:11:57.027Z,21.83
2018-02-23T08:14:25.287Z,14.87
2018-02-23T08:16:52.796Z,22.97
2018-02-23T08:19:20.291Z,21.57
2018-02-23T08:21:47.786Z,18.67
2018-02-23T08:24:16.058Z,20.47
2018-02-23T08:26:44.324Z,20.10
2018-02-23T08:29:12.582Z,17.43
2018-02-23T08:31:40.088Z,20.27
2018-02-23T08:34:07.588Z,22.33
2018-02-23T08:36:35.091Z,19.20
2018-02-23T08:39:02.613Z,19.00
2018-02-23T08:41:30.168Z,19.30
2018-02-23T08:43:57.656Z,19.70
2018-02-23T08:46:25.942Z,20.00
2018-02-23T08:48:53.459Z,23.30
2018-02-23T08:51:21.692Z,17.17
2018-02-23T08:53:49.923Z,15.60
2018-02-23T08:56:17.424Z,23.20
2018-02-23T08:58:44.918Z,17.83
2018-02-23T09:01:12.447Z,17.53
2018-02-23T09:03:39.946Z,18.80
2018-02-23T09:06:07.452Z,17.57
2018-02-23T09:08:34.977Z,19.73
2018-02-23T09:11:03.239Z,20.47
2018-02-23T09:13:30.740Z,16.23
2018-02-23T09:15:58.247Z,20.73
2018-02-23T09:18:25.743Z,17.13
2018-02-23T09:20:53.242Z,19.27
2018-02-23T09:23:20.758Z,18.13
2018-02-23T09:25:49.023Z,13.33
2018-02-23T09:28:17.288Z,19.27
2018-02-23T09:30:44.794Z,17.87
2018-02-23T09:33:12.284Z,18.77
2018-02-23T09:35:39.771Z,13.20
2018-02-23T09:38:08.064Z,15.80
2018-02-23T09:40:35.551Z,26.60
2018-02-23T09:43:03.608Z,16.50
2018-02-23T09:45:31.119Z,19.93
2018-02-23T09:47:58.628Z,18.67
2018-02-23T09:50:26.127Z,18.50
2018-02-23T09:52:53.638Z,19.37
2018-02-23T09:55:21.136Z,16.53
2018-02-23T09:57:48.639Z,19.47
2018-02-23T10:00:16.930Z,21.10
2018-02-23T10:02:44.428Z,19.70
2018-02-23T10:05:11.956Z,19.80
2018-02-23T10:07:39.452Z,19.23
2018-02-23T10:10:06.955Z,17.83
2018-02-23T10:12:34.462Z,20.03
2018-02-23T10:15:01.947Z,17.47
2018-02-23T10:17:30.204Z,15.37
2018-02-23T10:19:57.731Z,17.47
2018-02-23T10:22:25.266Z,20.30
2018-02-23T10:24:53.099Z,17.40
2018-02-23T10:27:21.367Z,15.87
2018-02-23T10:29:49.651Z,15.03
2018-02-23T10:32:17.911Z,16.70
2018-02-23T10:34:45.420Z,14.67
2018-02-23T10:37:12.936Z,16.27
2018-02-23T10:39:41.211Z,16.33
2018-02-23T10:42:09.488Z,14.80
2018-02-23T10:44:37.761Z,12.93
2018-02-23T10:47:05.248Z,15.57
2018-02-23T10:49:33.543Z,14.50
2018-02-23T10:52:01.043Z,14.03
2018-02-23T10:54:28.545Z,16.60
2018-02-23T10:56:56.040Z,14.97
2018-02-23T10:59:23.545Z,14.10
2018-02-23T11:01:51.800Z,16.37
2018-02-23T11:04:19.295Z,13.13
2018-02-23T11:06:46.808Z,14.97
2018-02-23T11:09:14.304Z,14.40
2018-02-23T11:11:41.796Z,13.70
2018-02-23T11:14:09.298Z,14.00
2018-02-23T11:16:37.555Z,38.57
2018-02-23T11:19:05.066Z,12.90
2018-02-23T11:21:32.560Z,13.97
2018-02-23T11:24:00.052Z,12.83
2018-02-23T11:26:28.332Z,13.13
2018-02-23T11:28:55.879Z,12.63
2018-02-23T11:31:24.138Z,12.97
2018-02-23T11:33:51.644Z,14.77
2018-02-23T11:36:19.189Z,13.17
2018-02-23T11:38:46.697Z,15.43
2018-02-23T11:41:14.187Z,12.60
2018-02-23T11:43:42.449Z,12.67
2018-02-23T11:46:09.955Z,10.33
2018-02-23T11:48:37.460Z,12.80
2018-02-23T11:51:04.952Z,11.27
2018-02-23T11:53:32.440Z,14.53
2018-02-23T11:55:59.946Z,14.13
2018-02-23T11:58:28.203Z,16.83
2018-02-23T12:00:55.700Z,15.00
2018-02-23T12:03:23.199Z,14.97
2018-02-23T12:05:50.693Z,15.10
2018-02-23T12:08:18.963Z,14.17
2018-02-23T12:10:47.223Z,13.10
2018-02-23T12:13:14.715Z,13.77
2018-02-23T12:15:42.983Z,10.00
2018-02-23T12:18:11.272Z,13.30
2018-02-23T12:20:38.748Z,12.50
2018-02-23T12:23:06.319Z,14.13
2018-02-23T12:25:33.811Z,12.97
2018-02-23T12:28:02.295Z,14.87
2018-02-23T12:30:29.797Z,13.20
2018-02-23T12:32:57.302Z,13.47
2018-02-23T12:35:24.787Z,14.07
2018-02-23T12:37:53.050Z,13.43
2018-02-23T12:40:21.312Z,14.17
2018-02-23T12:42:48.825Z,16.13
2018-02-23T12:45:16.360Z,19.30
2018-02-23T12:47:44.659Z,14.23
2018-02-23T12:50:12.201Z,13.43
2018-02-23T12:52:39.733Z,14.63
2018-02-23T12:55:07.230Z,13.80
2018-02-23T12:57:34.769Z,15.33
2018-02-23T13:00:02.303Z,12.67
2018-02-23T13:02:29.813Z,14.07
2018-02-23T13:04:57.316Z,15.13
2018-02-23T13:07:24.828Z,13.83
2018-02-23T13:09:52.344Z,15.07
2018-02-23T13:12:20.643Z,16.47
2018-02-23T13:14:53.930Z,14.93
2018-02-23T13:17:21.531Z,15.33
2018-02-23T13:19:49.807Z,14.57
2018-02-23T13:22:17.311Z,15.07
2018-02-23T13:24:45.670Z,15.83
2018-02-23T13:27:18.717Z,14.20
2018-02-23T13:29:46.283Z,16.07
2018-02-23T13:32:13.805Z,16.47
2018-02-23T13:34:41.357Z,15.63
2018-02-23T13:37:09.616Z,13.50
2018-02-23T13:39:37.938Z,15.17
2018-02-23T13:42:05.445Z,15.47
2018-02-23T13:44:32.963Z,13.10
2018-02-23T13:47:00.475Z,15.47
2018-02-23T13:49:28.788Z,15.40
2018-02-23T13:51:56.291Z,14.33
2018-02-23T13:54:24.793Z,15.87
2018-02-23T13:56:53.041Z,14.13
2018-02-23T13:59:20.539Z,16.60
2018-02-23T14:01:48.061Z,13.13
2018-02-23T14:04:15.553Z,14.73
2018-02-23T14:06:47.564Z,16.73
2018-02-23T14:09:15.390Z,15.77
2018-02-23T14:11:43.003Z,17.17
2018-02-23T14:14:10.530Z,17.43
2018-02-23T14:16:38.024Z,15.43
2018-02-23T14:19:05.524Z,14.60
2018-02-23T14:21:33.061Z,14.17
2018-02-23T14:24:01.351Z,16.10
2018-02-23T14:26:28.864Z,16.63
2018-02-23T14:28:56.387Z,16.80
2018-02-23T14:31:23.904Z,17.50
2018-02-23T14:33:51.407Z,18.57
2018-02-23T14:36:18.918Z,18.37
2018-02-23T14:38:46.426Z,17.03
2018-02-23T14:41:13.968Z,15.27
2018-02-23T14:43:41.488Z,21.57
2018-02-23T14:46:09.778Z,17.30
2018-02-23T14:48:50.021Z,18.27
2018-02-23T14:51:17.529Z,18.77
2018-02-23T14:53:45.035Z,16.33
2018-02-23T14:56:12.559Z,17.13
2018-02-23T14:58:40.064Z,18.17
2018-02-23T15:01:08.339Z,17.30
2018-02-23T15:03:36.628Z,15.90
2018-02-23T15:06:04.131Z,18.10
2018-02-23T15:08:31.654Z,15.37
2018-02-23T15:10:59.165Z,17.80
2018-02-23T15:13:26.702Z,17.53
2018-02-23T15:15:54.206Z,17.73
2018-02-23T15:18:22.467Z,19.03
2018-02-23T15:20:49.991Z,17.77
2018-02-23T15:23:19.573Z,19.47
2018-02-23T15:25:47.087Z,17.90
2018-02-23T15:28:14.608Z,15.87
2018-02-23T15:30:53.858Z,16.10
2018-02-23T15:33:21.382Z,16.73
2018-02-23T15:35:48.896Z,14.50
2018-02-23T15:38:16.403Z,15.17
2018-02-23T15:40:43.940Z,16.00
2018-02-23T15:43:11.441Z,16.43
2018-02-23T15:45:38.945Z,16.03
2018-02-23T15:48:23.101Z,17.00
2018-02-23T15:50:57.097Z,17.93
2018-02-23T15:53:25.393Z,16.30
2018-02-23T15:55:52.923Z,16.53
2018-02-23T15:58:23.007Z,16.90
2018-02-23T16:00:50.618Z,15.93
2018-02-23T16:03:18.281Z,14.37
2018-02-23T16:05:45.924Z,17.53
2018-02-23T16:08:13.655Z,16.33
2018-02-23T16:10:41.197Z,15.33
2018-02-23T16:13:08.730Z,14.87
2018-02-23T16:15:36.234Z,14.13
2018-02-23T16:18:03.747Z,15.30
2018-02-23T16:20:31.356Z,15.03
2018-02-23T16:22:59.008Z,14.97
2018-02-23T16:25:26.579Z,14.57
2018-02-23T16:27:54.884Z,15.20
2018-02-23T16:30:23.152Z,14.30
2018-02-23T16:32:51.419Z,15.93
2018-02-23T16:35:18.944Z,15.13
2018-02-23T16:37:46.462Z,14.03
2018-02-23T16:40:14.769Z,15.43
2018-02-23T16:42:42.304Z,13.00
2018-02-23T16:45:09.830Z,12.87
2018-02-23T16:47:37.342Z,13.60
2018-02-23T16:50:05.104Z,14.57
2018-02-23T16:52:32.599Z,11.93
2018-02-23T16:55:00.974Z,12.83
2018-02-23T16:57:28.503Z,13.40
2018-02-23T16:59:56.051Z,13.80
2018-02-23T17:02:23.607Z,12.83
2018-02-23T17:04:51.154Z,12.37
2018-02-23T17:07:19.003Z,15.73
2018-02-23T17:09:47.291Z,11.73
2018-02-23T17:12:14.802Z,13.17
2018-02-23T17:14:42.328Z,12.33
2018-02-23T17:17:09.863Z,13.03
2018-02-23T17:19:37.399Z,12.53
2018-02-23T17:22:04.919Z,13.20
2018-02-23T17:24:32.464Z,13.53
2018-02-23T17:26:59.983Z,10.87
2018-02-23T17:29:28.263Z,13.60
2018-02-23T17:31:56.556Z,11.87
2018-02-23T17:34:24.089Z,12.83
2018-02-23T17:36:52.375Z,10.57
2018-02-23T17:39:20.663Z,12.67
2018-02-23T17:41:48.158Z,13.43
2018-02-23T17:44:15.699Z,13.10
2018-02-23T17:46:43.227Z,12.00
2018-02-23T17:49:11.499Z,13.80
2018-02-23T17:51:39.777Z,13.07
2018-02-23T17:54:08.066Z,11.77
2018-02-23T17:56:35.585Z,12.83
2018-02-23T17:59:03.133Z,12.37
2018-02-23T18:01:30.649Z,13.30
2018-02-23T18:03:58.168Z,13.03
2018-02-23T18:06:25.683Z,12.20
2018-02-23T18:08:53.179Z,12.07
2018-02-23T18:11:20.721Z,12.17
2018-02-23T18:13:48.239Z,13.33
2018-02-23T18:16:15.739Z,12.80
2018-02-23T18:18:43.260Z,13.03
2018-02-23T18:21:10.759Z,13.37
2018-02-23T18:23:38.266Z,13.70
2018-02-23T18:26:05.788Z,14.50
2018-02-23T18:28:33.295Z,14.30
2018-02-23T18:31:00.800Z,13.73
2018-02-23T18:33:28.321Z,13.77
2018-02-23T18:35:55.823Z,14.43
2018-02-23T18:38:23.328Z,14.07
2018-02-23T18:40:50.845Z,15.90
2018-02-23T18:43:19.129Z,15.63
2018-02-23T18:45:47.432Z,15.23
2018-02-23T18:48:14.957Z,16.60
2018-02-23T18:50:43.230Z,16.27
2018-02-23T18:53:11.520Z,15.60
2018-02-23T18:55:40.806Z,16.23
2018-02-23T18:58:08.317Z,15.60
2018-02-23T19:00:35.815Z,15.87
2018-02-23T19:03:03.321Z,15.83
2018-02-23T19:05:31.747Z,17.53
2018-02-23T19:07:59.240Z,17.33
2018-02-23T19:10:26.771Z,16.43
2018-02-23T19:12:54.278Z,16.87
2018-02-23T19:15:21.791Z,16.37
2018-02-23T19:17:50.058Z,16.70
2018-02-23T19:20:17.599Z,16.20
2018-02-23T19:22:45.099Z,16.73
2018-02-23T19:25:12.711Z,16.50
2018-02-23T19:27:40.961Z,16.87
2018-02-23T19:30:08.475Z,16.93
2018-02-23T19:32:36.785Z,17.07
2018-02-23T19:35:04.296Z,17.03
2018-02-23T19:37:31.786Z,17.90
2018-02-23T19:39:59.383Z,17.37
2018-02-23T19:42:27.644Z,18.33
2018-02-23T19:44:55.202Z,18.73
2018-02-23T19:47:23.484Z,20.80
2018-02-23T19:49:51.589Z,17.47
2018-02-23T19:52:19.115Z,17.70
2018-02-23T19:54:46.636Z,17.37
2018-02-23T19:57:14.916Z,17.60
2018-02-23T19:59:43.182Z,17.30
2018-02-23T20:02:11.486Z,19.73
2018-02-23T20:04:38.983Z,18.90
2018-02-23T20:07:07.868Z,23.97
2018-02-23T20:09:35.384Z,18.73
2018-02-23T20:12:02.930Z,20.17
2018-02-23T20:14:30.513Z,20.33
2018-02-23T20:16:58.049Z,21.23
2018-02-23T20:19:25.588Z,20.07
2018-02-23T20:21:53.091Z,20.63
2018-02-23T20:24:20.580Z,17.93
2018-02-23T20:26:48.339Z,19.90
2018-02-23T20:29:15.892Z,19.23
2018-02-23T20:31:43.425Z,19.30
2018-02-23T20:34:10.931Z,21.30
2018-02-23T20:36:38.464Z,20.07
2018-02-23T20:39:05.999Z,20.30
2018-02-23T20:41:33.519Z,19.60
2018-02-23T20:44:01.040Z,21.07
2018-02-23T20:46:29.324Z,19.63
2018-02-23T20:48:56.865Z,18.50
2018-02-23T20:51:24.395Z,22.80
2018-02-23T20:53:51.931Z,19.87
2018-02-23T20:56:20.206Z,20.03
2018-02-23T20:58:48.474Z,21.00
2018-02-23T21:01:16.773Z,21.77
2018-02-23T21:03:44.302Z,22.73
2018-02-23T21:06:12.151Z,21.53
2018-02-23T21:08:39.803Z,21.63
2018-02-23T21:11:07.340Z,20.83
2018-02-23T21:13:34.844Z,19.40
2018-02-23T21:16:02.364Z,20.67
2018-02-23T21:18:30.760Z,19.73
2018-02-23T21:20:58.605Z,22.73
2018-02-23T21:23:27.211Z,20.87
2018-02-23T21:25:54.740Z,22.00
2018-02-23T21:28:22.379Z,18.90
2018-02-23T21:30:50.064Z,19.30
2018-02-23T21:33:17.583Z,19.83
2018-02-23T21:35:45.107Z,21.33
2018-02-23T21:38:12.792Z,20.80
2018-02-23T21:40:41.063Z,22.03
2018-02-23T21:43:09.391Z,21.03
2018-02-23T21:45:36.918Z,20.80
2018-02-23T21:48:04.457Z,18.70
2018-02-23T21:50:31.968Z,20.13
2018-02-23T21:52:59.495Z,20.73
2018-02-23T21:55:27.000Z,22.30
2018-02-23T21:57:54.523Z,22.23
2018-02-23T22:00:22.804Z,22.10
2018-02-23T22:02:51.068Z,20.50
2018-02-23T22:05:18.605Z,21.30
2018-02-23T22:07:46.143Z,20.27
2018-02-23T22:10:13.656Z,20.80
2018-02-23T22:12:41.940Z,21.13
2018-02-23T22:15:10.255Z,21.30
2018-02-23T22:17:37.937Z,21.50
2018-02-23T22:20:05.599Z,21.00
2018-02-23T22:22:33.128Z,20.93
2018-02-23T22:25:00.669Z,21.97
2018-02-23T22:27:28.952Z,20.87
2018-02-23T22:29:56.471Z,22.07
2018-02-23T22:32:23.991Z,20.23
2018-02-23T22:34:51.490Z,21.53
2018-02-23T22:37:19.010Z,21.20
2018-02-23T22:39:46.556Z,23.63
2018-02-23T22:42:14.067Z,21.93
2018-02-23T22:44:41.583Z,21.00
2018-02-23T22:47:09.087Z,21.50
2018-02-23T22:49:36.630Z,21.87
2018-02-23T22:52:04.851Z,20.83
2018-02-23T22:54:32.359Z,22.10
2018-02-23T22:56:59.918Z,22.53
2018-02-23T22:59:27.422Z,23.70
2018-02-23T23:01:54.941Z,22.90
2018-02-23T23:04:22.502Z,21.87
2018-02-23T23:06:50.047Z,22.87
2018-02-23T23:09:17.605Z,24.47
2018-02-23T23:11:45.149Z,24.17
2018-02-23T23:14:12.654Z,24.73
2018-02-23T23:16:41.052Z,22.80
2018-02-23T23:19:08.576Z,24.10
2018-02-23T23:21:36.085Z,24.53
2018-02-23T23:24:03.586Z,23.77
2018-02-23T23:26:31.102Z,23.67
2018-02-23T23:28:58.630Z,25.27
2018-02-23T23:31:26.907Z,22.87
2018-02-23T23:33:55.189Z,23.47
2018-02-23T23:36:23.733Z,26.67
2018-02-23T23:38:51.235Z,24.77
2018-02-23T23:41:18.800Z,25.03
2018-02-23T23:43:46.299Z,25.90
2018-02-23T23:46:15.346Z,24.77
2018-02-23T23:48:42.889Z,26.53
2018-02-23T23:51:11.412Z,26.07
2018-02-23T23:53:39.056Z,24.97
2018-02-23T23:56:06.579Z,26.63
2018-02-23T23:58:34.113Z,26.60
